Time;durP1;ratioP1;P1;durP2;ratioP2;P2;SDS_P1;SDS_P2;PMS_P1;PMS_P2;Temp;Humidity;BMP_temperature;BMP_pressure;BME280_temperature;BME280_humidity;BME280_pressure;Samples;Min_cycle;Max_cycle;Signal;HPM_P1;HPM_P2
2021/09/05 00:01:05;;;;;;;6.63;4.18;;;23.30;55.10;;;;;;5050882;28;20171;-52
2021/09/05 00:03:32;;;;;;;10.77;5.07;;;23.30;55.10;;;;;;5051251;28;20028;-53
2021/09/05 00:05:57;;;;;;;7.38;4.25;;;23.30;55.10;;;;;;5040997;28;20037;-52
2021/09/05 00:08:23;;;;;;;4.97;3.50;;;23.30;55.00;;;;;;5031919;28;20030;-50
2021/09/05 00:10:48;;;;;;;7.30;4.30;;;23.30;55.00;;;;;;5034796;28;20402;-51
2021/09/05 00:13:14;;;;;;;14.88;5.93;;;23.30;55.00;;;;;;5051098;28;20029;-50
2021/09/05 00:15:40;;;;;;;6.40;4.25;;;23.30;55.00;;;;;;5052327;28;20036;-54
2021/09/05 00:18:06;;;;;;;5.30;3.88;;;23.30;55.60;;;;;;5051082;28;20074;-51
2021/09/05 00:20:33;;;;;;;5.00;3.97;;;23.30;55.00;;;;;;5051965;28;20104;-53
2021/09/05 00:22:59;;;;;;;6.47;4.38;;;23.30;55.00;;;;;;5052038;28;20035;-50
2021/09/05 00:25:24;;;;;;;4.68;3.83;;;23.30;55.00;;;;;;5050975;28;20017;-52
2021/09/05 00:27:50;;;;;;;6.38;3.90;;;23.30;55.00;;;;;;5056398;28;20070;-52
2021/09/05 00:30:16;;;;;;;5.75;4.13;;;23.30;55.00;;;;;;5054341;28;20410;-52
2021/09/05 00:32:41;;;;;;;6.97;3.92;;;23.30;55.00;;;;;;5050303;28;20037;-51
2021/09/05 00:35:07;;;;;;;5.50;4.07;;;23.20;55.00;;;;;;5050836;28;20025;-54
2021/09/05 00:37:33;;;;;;;7.57;4.25;;;23.20;55.00;;;;;;5051698;28;20024;-51
2021/09/05 00:39:59;;;;;;;6.65;4.30;;;23.20;55.00;;;;;;5051607;28;20075;-51
2021/09/05 00:42:26;;;;;;;5.43;4.00;;;23.20;55.10;;;;;;5051350;28;20083;-54
2021/09/05 00:44:53;;;;;;;6.20;3.63;;;23.20;55.10;;;;;;5051372;28;20029;-54
2021/09/05 00:47:19;;;;;;;5.75;3.95;;;23.20;55.10;;;;;;5050967;28;20470;-52
2021/09/05 00:49:45;;;;;;;5.50;3.70;;;23.20;55.10;;;;;;5051538;28;20021;-51
2021/09/05 00:52:12;;;;;;;5.60;3.80;;;23.20;55.00;;;;;;5050814;28;20393;-49
2021/09/05 00:54:41;;;;;;;6.60;4.13;;;23.20;55.00;;;;;;5051635;28;20070;-49
2021/09/05 00:57:11;;;;;;;4.75;3.78;;;23.20;55.10;;;;;;5050610;28;20410;-52
2021/09/05 00:59:39;;;;;;;6.07;4.40;;;23.20;55.00;;;;;;5057899;28;20087;-52
2021/09/05 01:02:05;;;;;;;4.65;3.42;;;23.20;55.10;;;;;;5051337;28;20513;-49
2021/09/05 01:04:31;;;;;;;5.47;3.95;;;23.20;55.10;;;;;;5050861;28;20033;-48
2021/09/05 01:06:56;;;;;;;5.88;3.95;;;23.20;55.10;;;;;;5051165;28;20040;-50
2021/09/05 01:09:22;;;;;;;5.60;4.00;;;23.20;55.10;;;;;;5050395;28;20072;-50
2021/09/05 01:11:49;;;;;;;5.03;4.00;;;23.20;55.10;;;;;;5050966;28;20037;-52
2021/09/05 01:14:15;;;;;;;5.18;4.20;;;23.20;55.20;;;;;;5051435;28;20057;-54
2021/09/05 01:16:42;;;;;;;4.68;3.55;;;23.20;55.20;;;;;;5057849;28;20462;-51
2021/09/05 01:19:34;;;;;;;5.55;4.03;;;23.10;55.20;;;;;;5057116;28;20099;-50
2021/09/05 01:22:00;;;;;;;6.20;4.00;;;23.20;55.30;;;;;;5048455;28;20084;-52
2021/09/05 01:24:25;;;;;;;4.95;4.13;;;23.10;55.20;;;;;;5057038;28;20033;-51
2021/09/05 01:26:52;;;;;;;6.40;4.50;;;23.20;55.30;;;;;;5057676;28;20033;-52
2021/09/05 01:29:18;;;;;;;5.07;3.67;;;23.10;55.30;;;;;;5060553;28;20056;-50
2021/09/05 01:31:52;;;;;;;5.53;3.80;;;23.10;55.30;;;;;;5057881;28;20045;-50
2021/09/05 01:34:20;;;;;;;6.22;4.22;;;23.10;55.30;;;;;;5056822;28;20040;-49
2021/09/05 01:36:48;;;;;;;4.40;3.70;;;23.10;55.30;;;;;;5057823;28;20104;-49
2021/09/05 01:39:15;;;;;;;5.63;3.95;;;23.10;55.20;;;;;;5056434;28;20466;-50
2021/09/05 01:41:41;;;;;;;5.78;4.05;;;23.10;55.20;;;;;;5057799;28;20086;-52
2021/09/05 01:44:10;;;;;;;8.30;4.35;;;23.10;55.50;;;;;;5056980;28;20029;-53
2021/09/05 01:46:36;;;;;;;5.15;3.83;;;23.00;55.50;;;;;;5057747;28;20410;-53
2021/09/05 01:49:03;;;;;;;8.85;4.25;;;23.00;55.50;;;;;;5057615;28;20428;-52
2021/09/05 01:51:29;;;;;;;6.50;3.92;;;23.10;55.50;;;;;;5056737;28;20063;-53
2021/09/05 01:53:54;;;;;;;9.15;5.50;;;23.10;55.40;;;;;;5057603;28;20025;-49
2021/09/05 01:56:20;;;;;;;5.55;3.97;;;23.10;55.40;;;;;;5056693;28;20025;-53
2021/09/05 01:58:46;;;;;;;5.78;4.05;;;23.10;55.40;;;;;;5059501;28;20037;-53
2021/09/05 02:01:11;;;;;;;6.68;4.07;;;23.10;55.30;;;;;;5056235;28;20053;-51
2021/09/05 02:03:37;;;;;;;5.65;4.15;;;23.10;55.40;;;;;;5057539;28;20078;-49
2021/09/05 02:06:03;;;;;;;4.65;4.15;;;23.10;55.30;;;;;;5057006;28;20052;-54
2021/09/05 02:08:30;;;;;;;6.32;4.00;;;23.10;55.30;;;;;;5056647;28;20033;-51
2021/09/05 02:10:56;;;;;;;5.97;4.15;;;23.10;55.40;;;;;;5057139;28;20037;-50
2021/09/05 02:13:21;;;;;;;5.35;3.67;;;23.10;55.30;;;;;;5056185;28;20029;-48
2021/09/05 02:15:47;;;;;;;7.22;4.20;;;23.10;55.40;;;;;;5056037;28;20036;-49
2021/09/05 02:18:12;;;;;;;7.18;4.38;;;23.10;55.40;;;;;;5056797;28;20458;-48
2021/09/05 02:20:38;;;;;;;6.00;4.68;;;23.10;55.40;;;;;;5057368;28;20025;-48
2021/09/05 02:23:04;;;;;;;5.28;3.80;;;23.10;55.50;;;;;;5056885;28;20395;-49
2021/09/05 02:25:29;;;;;;;5.78;4.68;;;23.00;55.40;;;;;;5056725;28;20060;-51
2021/09/05 02:27:55;;;;;;;6.22;4.38;;;23.10;55.40;;;;;;5057087;28;20107;-49
2021/09/05 02:30:21;;;;;;;6.75;4.20;;;23.10;55.50;;;;;;5053016;28;20025;-49
2021/09/05 02:32:46;;;;;;;5.20;4.20;;;23.10;55.40;;;;;;5053880;28;20048;-49
2021/09/05 02:35:12;;;;;;;6.72;4.43;;;23.10;55.40;;;;;;5052990;28;20059;-52
2021/09/05 02:37:38;;;;;;;5.00;3.80;;;23.10;55.50;;;;;;5053767;28;20036;-52
2021/09/05 02:40:05;;;;;;;5.70;3.60;;;23.10;55.50;;;;;;5053925;28;20039;-54
2021/09/05 02:42:35;;;;;;;4.80;3.83;;;23.00;55.50;;;;;;5053127;28;20051;-53
2021/09/05 02:45:03;;;;;;;5.13;3.85;;;23.00;55.60;;;;;;5053964;28;20025;-49
2021/09/05 02:47:29;;;;;;;6.38;3.72;;;22.90;55.70;;;;;;5052969;28;20032;-50
2021/09/05 02:49:55;;;;;;;4.40;3.65;;;22.90;55.70;;;;;;5053719;28;20029;-49
2021/09/05 02:52:20;;;;;;;5.85;4.30;;;22.90;55.60;;;;;;5052764;28;20037;-51
2021/09/05 02:54:46;;;;;;;5.82;4.47;;;22.90;55.60;;;;;;5053535;28;20041;-48
2021/09/05 02:57:12;;;;;;;4.65;3.70;;;23.00;55.70;;;;;;5053075;28;20104;-51
2021/09/05 02:59:37;;;;;;;5.18;4.40;;;23.00;55.60;;;;;;5056089;28;20080;-50
2021/09/05 03:02:03;;;;;;;6.43;3.95;;;23.00;55.50;;;;;;5052951;28;20538;-53
2021/09/05 03:04:29;;;;;;;5.35;4.40;;;23.00;55.50;;;;;;5052637;28;20028;-52
2021/09/05 03:06:55;;;;;;;5.45;3.90;;;23.00;55.50;;;;;;5052921;28;20025;-51
2021/09/05 03:09:21;;;;;;;5.35;4.25;;;23.00;55.50;;;;;;5052817;28;20036;-55
2021/09/05 03:11:47;;;;;;;4.57;3.75;;;23.00;55.50;;;;;;5052962;28;20049;-53
2021/09/05 03:14:12;;;;;;;5.07;4.03;;;23.00;55.50;;;;;;5034020;28;20036;-54
2021/09/05 03:16:38;;;;;;;4.00;3.58;;;23.00;55.50;;;;;;5033998;28;20479;-50
2021/09/05 03:19:04;;;;;;;6.90;4.38;;;23.00;55.50;;;;;;5049962;28;20037;-49
2021/09/05 03:21:29;;;;;;;6.10;3.88;;;23.00;55.40;;;;;;5052363;28;20033;-52
2021/09/05 03:23:55;;;;;;;5.70;4.35;;;23.00;55.50;;;;;;5053136;28;20075;-52
2021/09/05 03:26:20;;;;;;;4.57;3.42;;;23.00;55.40;;;;;;5052286;28;20091;-54
2021/09/05 03:28:46;;;;;;;4.88;3.90;;;23.00;55.40;;;;;;5053297;28;20036;-50
2021/09/05 03:31:12;;;;;;;4.22;3.58;;;23.00;55.50;;;;;;5051905;28;20128;-52
2021/09/05 03:33:37;;;;;;;5.75;4.57;;;23.00;55.50;;;;;;5052770;28;20029;-48
2021/09/05 03:36:04;;;;;;;5.70;3.65;;;22.90;55.60;;;;;;5052758;28;20116;-50
2021/09/05 03:38:30;;;;;;;5.18;3.33;;;22.90;55.70;;;;;;5049366;28;20557;-53
2021/09/05 03:40:56;;;;;;;5.20;3.55;;;22.90;55.70;;;;;;5052619;28;20039;-52
2021/09/05 03:43:21;;;;;;;7.57;4.22;;;22.90;55.60;;;;;;5052405;28;20028;-48
2021/09/05 03:45:47;;;;;;;5.13;3.70;;;22.90;55.60;;;;;;5052503;28;20436;-49
2021/09/05 03:48:13;;;;;;;6.10;3.83;;;22.90;55.60;;;;;;5051757;28;20543;-49
2021/09/05 03:50:39;;;;;;;4.85;3.63;;;22.90;55.50;;;;;;5052411;28;20037;-50
2021/09/05 03:53:04;;;;;;;6.30;4.25;;;22.90;55.50;;;;;;5052281;28;20033;-52
2021/09/05 03:55:30;;;;;;;5.10;3.95;;;22.90;55.50;;;;;;5051718;28;20032;-48
2021/09/05 03:57:56;;;;;;;5.75;3.75;;;22.90;55.60;;;;;;5052609;28;20551;-50
2021/09/05 04:00:21;;;;;;;5.72;4.20;;;22.90;55.60;;;;;;5051123;28;20478;-53
2021/09/05 04:02:47;;;;;;;6.43;4.10;;;22.90;55.70;;;;;;5052634;28;20374;-49
2021/09/05 04:05:13;;;;;;;5.47;4.03;;;22.90;55.60;;;;;;5051316;28;20082;-51
2021/09/05 04:07:42;;;;;;;5.47;3.90;;;22.90;55.60;;;;;;5060022;28;20025;-52
2021/09/05 04:10:11;;;;;;;5.32;3.83;;;22.90;55.60;;;;;;5052037;28;20017;-53
2021/09/05 04:12:41;;;;;;;5.88;3.75;;;22.90;55.60;;;;;;5051741;28;20025;-49
2021/09/05 04:15:07;;;;;;;4.90;3.92;;;22.90;55.60;;;;;;5052341;28;20031;-48
2021/09/05 04:17:33;;;;;;;5.93;4.32;;;22.90;55.60;;;;;;5051354;28;20021;-50
2021/09/05 04:19:59;;;;;;;6.90;4.20;;;22.90;55.50;;;;;;5051957;28;20075;-51
2021/09/05 04:22:25;;;;;;;5.47;4.18;;;22.90;55.60;;;;;;5051257;28;20033;-50
2021/09/05 04:24:51;;;;;;;5.30;3.60;;;22.90;55.50;;;;;;5051833;28;20483;-51
2021/09/05 04:27:17;;;;;;;6.10;3.95;;;22.90;55.50;;;;;;5051062;28;20036;-51
2021/09/05 04:29:43;;;;;;;10.63;4.10;;;22.90;55.50;;;;;;5051504;28;20550;-52
2021/09/05 04:32:09;;;;;;;4.80;3.90;;;22.90;55.60;;;;;;5051749;28;20084;-53
2021/09/05 04:34:34;;;;;;;4.68;3.60;;;22.90;55.60;;;;;;5051458;28;20104;-54
2021/09/05 04:37:00;;;;;;;6.05;3.83;;;22.90;55.60;;;;;;5055908;28;20070;-52
2021/09/05 04:39:26;;;;;;;5.97;3.88;;;22.90;55.70;;;;;;5051249;28;20025;-51
2021/09/05 04:41:51;;;;;;;5.80;4.30;;;22.90;55.70;;;;;;5051835;28;20029;-52
2021/09/05 04:44:17;;;;;;;7.00;4.45;;;22.90;55.70;;;;;;5050853;28;20025;-53
2021/09/05 04:46:43;;;;;;;4.63;3.85;;;22.90;55.70;;;;;;5051408;28;20117;-51
2021/09/05 04:49:09;;;;;;;6.45;3.72;;;22.90;55.60;;;;;;5051284;28;20389;-53
2021/09/05 04:51:35;;;;;;;6.07;4.10;;;22.90;55.60;;;;;;5050716;28;20059;-54
2021/09/05 04:54:01;;;;;;;4.95;3.95;;;22.90;55.60;;;;;;5051421;28;20459;-52
2021/09/05 04:56:27;;;;;;;4.90;4.20;;;22.90;55.40;;;;;;5050919;28;20029;-50
2021/09/05 04:58:52;;;;;;;8.02;4.07;;;22.90;55.50;;;;;;5051067;28;20040;-54
2021/09/05 05:01:18;;;;;;;7.07;4.18;;;22.90;55.50;;;;;;5050147;28;20095;-55
2021/09/05 05:03:43;;;;;;;6.05;4.38;;;22.90;55.50;;;;;;5051203;28;20398;-50
2021/09/05 05:06:10;;;;;;;4.80;3.67;;;22.90;55.50;;;;;;5051096;28;20036;-50
2021/09/05 05:08:35;;;;;;;5.40;3.58;;;22.90;55.50;;;;;;5055197;28;20040;-53
2021/09/05 05:11:01;;;;;;;5.07;4.20;;;22.90;55.60;;;;;;5051173;28;20417;-51
2021/09/05 05:13:27;;;;;;;4.65;3.85;;;22.80;55.60;;;;;;5050310;28;20047;-50
2021/09/05 05:15:56;;;;;;;5.20;3.78;;;22.80;55.70;;;;;;5051257;28;20025;-48
2021/09/05 05:18:22;;;;;;;5.38;3.72;;;22.80;55.70;;;;;;5049674;28;20032;-52
2021/09/05 05:20:48;;;;;;;6.20;4.10;;;22.80;55.80;;;;;;5050133;28;20662;-51
2021/09/05 05:23:14;;;;;;;5.22;3.70;;;22.80;55.80;;;;;;5046799;28;20033;-53
2021/09/05 05:25:40;;;;;;;5.95;4.15;;;22.80;55.80;;;;;;5049070;28;20505;-53
2021/09/05 05:28:06;;;;;;;6.55;4.25;;;22.80;55.80;;;;;;5049799;28;20033;-49
2021/09/05 05:30:31;;;;;;;4.78;3.97;;;22.80;55.80;;;;;;5049107;28;20041;-53
2021/09/05 05:32:58;;;;;;;5.22;4.05;;;22.80;55.80;;;;;;5050086;28;20031;-53
2021/09/05 05:35:25;;;;;;;6.00;3.85;;;22.80;55.80;;;;;;5049172;28;20390;-54
2021/09/05 05:37:51;;;;;;;6.70;4.18;;;22.80;55.80;;;;;;5051013;28;20032;-53
2021/09/05 05:40:22;;;;;;;6.95;3.80;;;22.80;55.80;;;;;;5048681;28;20061;-54
2021/09/05 05:42:48;;;;;;;5.22;4.00;;;22.80;55.90;;;;;;5049542;28;20028;-54
2021/09/05 05:45:17;;;;;;;6.43;4.13;;;22.80;55.90;;;;;;5049090;28;20060;-54
2021/09/05 05:47:45;;;;;;;6.95;4.35;;;22.80;55.90;;;;;;5049548;28;20382;-52
2021/09/05 05:50:11;;;;;;;6.72;3.80;;;22.80;55.90;;;;;;5049087;28;20029;-54
2021/09/05 05:52:37;;;;;;;4.28;3.80;;;22.80;55.90;;;;;;5049285;28;20048;-51
2021/09/05 05:55:04;;;;;;;5.50;4.47;;;22.80;55.90;;;;;;5049545;28;20033;-52
2021/09/05 05:57:29;;;;;;;6.07;3.90;;;22.80;55.80;;;;;;5048606;28;20139;-52
2021/09/05 05:59:55;;;;;;;6.30;4.15;;;22.80;55.90;;;;;;5049034;28;20140;-53
2021/09/05 06:02:20;;;;;;;6.55;4.32;;;22.80;55.80;;;;;;5050752;28;20037;-53
2021/09/05 06:04:46;;;;;;;5.03;3.80;;;22.80;55.80;;;;;;5053131;28;20035;-52
2021/09/05 06:07:12;;;;;;;5.45;4.10;;;22.90;56.00;;;;;;5055282;28;20499;-54
2021/09/05 06:09:41;;;;;;;7.35;4.53;;;22.90;56.00;;;;;;5052464;28;20364;-51
2021/09/05 06:12:08;;;;;;;5.65;4.22;;;22.80;55.90;;;;;;5052998;28;20136;-51
2021/09/05 06:14:34;;;;;;;5.53;4.10;;;22.80;55.90;;;;;;5049858;28;20024;-53
2021/09/05 06:17:00;;;;;;;4.93;3.85;;;22.90;56.00;;;;;;5053951;28;20470;-51
2021/09/05 06:19:26;;;;;;;5.32;3.95;;;22.90;56.00;;;;;;5052243;28;20100;-52
2021/09/05 06:21:51;;;;;;;9.25;4.18;;;22.90;56.00;;;;;;5052832;28;20406;-51
2021/09/05 06:24:17;;;;;;;6.57;4.32;;;22.90;56.60;;;;;;5053296;28;20092;-52
2021/09/05 06:26:43;;;;;;;6.45;4.10;;;22.90;56.00;;;;;;5053814;28;20025;-51
2021/09/05 06:29:09;;;;;;;6.93;4.18;;;22.90;56.10;;;;;;5054695;28;20033;-52
2021/09/05 06:31:36;;;;;;;4.65;3.60;;;23.00;56.40;;;;;;5044453;28;20041;-55
2021/09/05 06:34:02;;;;;;;9.40;4.38;;;23.10;56.20;;;;;;5053703;28;20421;-55
2021/09/05 06:36:27;;;;;;;9.48;4.85;;;23.20;56.20;;;;;;5053189;28;20104;-54
2021/09/05 06:38:53;;;;;;;12.48;4.57;;;23.30;56.50;;;;;;5056840;28;20104;-54
2021/09/05 06:41:18;;;;;;;10.35;4.60;;;23.30;56.50;;;;;;5053140;28;20079;-57
2021/09/05 06:43:44;;;;;;;7.38;4.32;;;23.30;56.90;;;;;;5053748;28;20032;-52
2021/09/05 06:46:10;;;;;;;21.33;4.85;;;23.20;56.80;;;;;;5047080;28;20017;-54
2021/09/05 06:48:35;;;;;;;13.32;6.13;;;23.20;57.00;;;;;;5053119;28;20116;-54
2021/09/05 06:51:01;;;;;;;9.93;5.82;;;23.00;55.50;;;;;;5060247;28;20466;-53
2021/09/05 06:53:27;;;;;;;11.50;6.60;;;22.80;56.00;;;;;;5052110;28;20062;-55
2021/09/05 06:55:52;;;;;;;9.60;5.90;;;22.70;55.70;;;;;;5052661;28;20032;-52
2021/09/05 06:58:18;;;;;;;10.52;5.85;;;22.60;56.30;;;;;;5052044;28;20033;-54
2021/09/05 07:00:44;;;;;;;8.98;6.50;;;22.50;55.80;;;;;;5053403;28;20061;-54
2021/09/05 07:03:09;;;;;;;11.85;5.78;;;22.50;56.10;;;;;;5051105;28;20036;-53
2021/09/05 07:05:36;;;;;;;8.48;5.93;;;22.40;56.60;;;;;;5052062;28;20083;-53
2021/09/05 07:08:02;;;;;;;8.52;5.68;;;22.40;56.80;;;;;;5051957;28;20025;-55
2021/09/05 07:10:27;;;;;;;8.40;5.72;;;22.40;56.60;;;;;;5052397;28;20421;-51
2021/09/05 07:12:53;;;;;;;8.48;5.47;;;22.30;56.80;;;;;;5052223;28;20057;-53
2021/09/05 07:15:19;;;;;;;8.02;5.57;;;22.20;57.00;;;;;;5052503;28;20020;-54
2021/09/05 07:17:44;;;;;;;8.35;5.35;;;22.30;56.90;;;;;;5053235;28;20450;-53
2021/09/05 07:20:11;;;;;;;8.88;5.25;;;22.20;57.10;;;;;;5053135;28;20029;-54
2021/09/05 07:22:37;;;;;;;7.75;5.93;;;22.20;57.00;;;;;;5052216;28;20652;-55
2021/09/05 07:25:03;;;;;;;6.50;5.25;;;22.20;57.00;;;;;;5052985;28;20029;-54
2021/09/05 07:27:31;;;;;;;7.35;5.13;;;22.20;57.10;;;;;;5052399;28;20037;-53
2021/09/05 07:29:57;;;;;;;6.50;5.13;;;22.20;57.40;;;;;;5052742;28;20119;-53
2021/09/05 07:32:22;;;;;;;8.27;5.50;;;22.10;57.40;;;;;;5051582;28;20071;-54
2021/09/05 07:34:48;;;;;;;7.97;5.38;;;22.10;57.50;;;;;;5052996;28;20033;-53
2021/09/05 07:37:14;;;;;;;7.10;5.15;;;22.10;57.90;;;;;;5052852;28;20065;-55
2021/09/05 07:39:41;;;;;;;8.10;5.45;;;22.10;58.70;;;;;;5052420;28;20040;-52
2021/09/05 07:42:07;;;;;;;7.47;5.63;;;22.10;58.30;;;;;;5052543;28;20028;-51
2021/09/05 07:44:33;;;;;;;8.48;6.00;;;22.10;58.50;;;;;;5051376;28;20116;-54
2021/09/05 07:46:59;;;;;;;6.57;5.00;;;22.10;58.50;;;;;;5055424;28;20512;-55
2021/09/05 07:49:25;;;;;;;8.43;4.93;;;22.10;58.60;;;;;;5053954;28;20082;-56
2021/09/05 07:51:51;;;;;;;6.30;4.85;;;22.10;58.90;;;;;;5052461;28;20033;-52
2021/09/05 07:54:17;;;;;;;8.18;5.03;;;22.20;59.10;;;;;;5052035;28;20021;-55
2021/09/05 07:56:42;;;;;;;9.60;5.13;;;22.20;59.00;;;;;;5052514;28;20036;-51
2021/09/05 07:59:08;;;;;;;8.57;5.22;;;22.20;58.80;;;;;;5052018;28;20030;-54
2021/09/05 08:01:34;;;;;;;8.27;5.28;;;22.20;59.10;;;;;;5051850;28;20106;-54
2021/09/05 08:04:00;;;;;;;7.47;5.32;;;22.30;58.70;;;;;;5052254;28;20028;-53
2021/09/05 08:06:26;;;;;;;7.80;4.40;;;22.50;58.20;;;;;;5051329;28;20481;-51
2021/09/05 08:08:52;;;;;;;6.03;4.65;;;22.60;57.90;;;;;;5052172;28;20104;-51
2021/09/05 08:11:18;;;;;;;11.70;4.78;;;22.70;57.70;;;;;;5051800;28;20132;-52
2021/09/05 08:13:44;;;;;;;5.20;4.25;;;22.80;57.50;;;;;;5051672;28;20033;-49
2021/09/05 08:16:09;;;;;;;5.15;4.18;;;22.80;57.40;;;;;;5052107;28;20025;-49
2021/09/05 08:18:37;;;;;;;6.20;4.38;;;22.80;57.40;;;;;;5056322;28;20032;-53
2021/09/05 08:21:04;;;;;;;9.43;4.35;;;22.90;57.40;;;;;;5051958;28;20482;-53
2021/09/05 08:23:30;;;;;;;5.45;4.20;;;22.90;57.50;;;;;;5051484;28;20021;-54
2021/09/05 08:25:56;;;;;;;9.10;5.22;;;22.90;57.50;;;;;;5051771;28;20040;-50
2021/09/05 08:28:21;;;;;;;7.85;4.68;;;22.90;57.80;;;;;;5051116;28;20028;-49
2021/09/05 08:30:48;;;;;;;6.70;4.85;;;22.90;57.70;;;;;;5051837;28;20486;-48
2021/09/05 08:33:15;;;;;;;6.57;4.68;;;22.90;57.50;;;;;;5051959;28;20062;-51
2021/09/05 08:35:41;;;;;;;10.75;4.60;;;22.90;57.70;;;;;;5050501;28;20040;-54
2021/09/05 08:38:08;;;;;;;5.80;4.38;;;22.90;57.70;;;;;;5051361;28;20024;-54
2021/09/05 08:40:39;;;;;;;6.07;4.32;;;22.90;57.50;;;;;;5050335;28;20028;-53
2021/09/05 08:43:04;;;;;;;5.75;4.63;;;23.00;57.50;;;;;;5051011;28;20025;-54
2021/09/05 08:45:31;;;;;;;5.57;4.43;;;23.00;57.60;;;;;;5049262;28;20059;-53
2021/09/05 08:47:56;;;;;;;5.72;4.78;;;23.00;57.80;;;;;;5050392;28;20062;-54
2021/09/05 08:50:25;;;;;;;6.05;4.25;;;23.00;57.70;;;;;;5049757;28;20405;-54
2021/09/05 08:52:51;;;;;;;6.60;4.30;;;23.00;57.60;;;;;;5050756;28;20032;-51
2021/09/05 08:55:17;;;;;;;6.15;4.35;;;23.00;57.60;;;;;;5049904;28;20032;-55
2021/09/05 08:57:43;;;;;;;4.78;3.95;;;23.10;57.60;;;;;;5050291;28;20029;-54
2021/09/05 09:00:09;;;;;;;6.95;4.35;;;23.00;57.50;;;;;;5050054;28;20091;-55
2021/09/05 09:02:50;;;;;;;8.23;4.45;;;23.00;57.60;;;;;;5049274;28;20486;-54
2021/09/05 09:05:36;;;;;;;5.68;4.20;;;23.00;57.70;;;;;;5050160;28;20037;-52
2021/09/05 09:08:07;;;;;;;11.60;4.07;;;23.10;57.70;;;;;;5048283;28;20052;-54
2021/09/05 09:10:45;;;;;;;7.15;4.35;;;23.10;57.90;;;;;;5049478;28;20118;-55
2021/09/05 09:13:30;;;;;;;5.18;4.05;;;23.10;57.70;;;;;;5049113;28;20434;-53
2021/09/05 09:16:03;;;;;;;5.45;4.38;;;23.10;57.70;;;;;;5049341;28;20064;-52
2021/09/05 09:18:30;;;;;;;7.10;4.05;;;23.10;57.70;;;;;;5051520;28;20021;-52
2021/09/05 09:20:58;;;;;;;6.90;4.70;;;23.10;57.60;;;;;;5049851;28;20084;-51
2021/09/05 09:23:29;;;;;;;5.80;4.38;;;23.10;58.00;;;;;;5049080;28;20467;-54
2021/09/05 09:26:03;;;;;;;4.93;4.33;;;23.10;57.80;;;;;;5049551;28;20029;-52
2021/09/05 09:28:40;;;;;;;7.78;4.68;;;23.20;58.10;;;;;;5047940;28;20398;-50
2021/09/05 09:31:13;;;;;;;12.25;4.45;;;23.20;58.70;;;;;;5047882;28;20049;-54
2021/09/05 09:33:39;;;;;;;6.28;3.92;;;23.20;58.60;;;;;;5048637;28;20048;-55
2021/09/05 09:36:05;;;;;;;6.15;4.75;;;23.20;59.00;;;;;;5052086;28;20033;-51
2021/09/05 09:38:32;;;;;;;5.82;3.55;;;23.20;58.70;;;;;;5051955;28;20383;-56
2021/09/05 09:41:08;;;;;;;5.35;4.35;;;23.20;58.50;;;;;;5052191;28;20033;-55
2021/09/05 09:43:34;;;;;;;4.93;4.00;;;23.30;58.20;;;;;;5053687;28;20099;-54
2021/09/05 09:46:21;;;;;;;5.80;4.05;;;23.30;58.50;;;;;;5054221;28;20079;-50
2021/09/05 09:48:49;;;;;;;5.95;4.20;;;23.30;58.60;;;;;;5053095;28;20029;-55
2021/09/05 09:51:16;;;;;;;6.20;3.80;;;23.30;58.70;;;;;;5055779;28;20036;-54
2021/09/05 09:53:43;;;;;;;6.18;4.18;;;23.30;58.50;;;;;;5053149;28;20025;-51
2021/09/05 09:56:11;;;;;;;5.93;4.05;;;23.30;58.40;;;;;;5053831;28;20458;-50
2021/09/05 09:58:37;;;;;;;5.53;3.67;;;23.40;58.60;;;;;;5052685;28;20638;-54
2021/09/05 10:01:04;;;;;;;5.72;3.90;;;23.40;58.50;;;;;;5052825;28;20067;-56
2021/09/05 10:03:31;;;;;;;6.90;4.47;;;23.50;58.50;;;;;;5052770;28;20113;-54
2021/09/05 10:06:01;;;;;;;6.03;3.78;;;23.60;58.60;;;;;;5052957;28;20029;-53
2021/09/05 10:08:30;;;;;;;7.13;4.80;;;23.60;58.60;;;;;;5052993;28;20039;-51
2021/09/05 10:10:58;;;;;;;7.13;3.90;;;23.60;59.80;;;;;;5053295;28;20033;-55
2021/09/05 10:13:32;;;;;;;6.90;4.25;;;23.70;58.60;;;;;;5052200;28;20033;-53
2021/09/05 10:16:00;;;;;;;5.95;4.35;;;23.80;58.10;;;;;;5053632;28;20025;-54
2021/09/05 10:18:27;;;;;;;5.20;4.63;;;23.80;57.80;;;;;;5052542;28;20434;-58
2021/09/05 10:20:54;;;;;;;7.28;3.60;;;23.80;57.60;;;;;;5054530;28;20095;-57
2021/09/05 10:23:31;;;;;;;9.27;4.32;;;23.80;57.60;;;;;;5054112;28;20356;-57
2021/09/05 10:26:05;;;;;;;6.03;4.13;;;23.80;57.50;;;;;;5054231;28;20108;-52
2021/09/05 10:28:39;;;;;;;5.10;3.58;;;23.90;57.40;;;;;;5053027;28;20150;-56
2021/09/05 10:31:06;;;;;;;6.55;4.80;;;23.80;57.40;;;;;;5061425;28;20087;-56
2021/09/05 10:33:38;;;;;;;6.10;3.92;;;23.80;57.60;;;;;;5052772;28;20493;-59
2021/09/05 10:36:15;;;;;;;8.13;4.07;;;23.70;57.50;;;;;;5053658;28;20029;-58
2021/09/05 10:38:42;;;;;;;5.45;3.88;;;23.70;57.20;;;;;;5053220;28;20029;-58
2021/09/05 10:41:23;;;;;;;6.32;3.70;;;23.70;57.10;;;;;;5053838;28;20020;-57
2021/09/05 10:43:54;;;;;;;8.18;3.72;;;23.70;57.00;;;;;;5053956;28;20043;-57
2021/09/05 10:46:40;;;;;;;8.45;4.00;;;23.70;56.90;;;;;;5053074;28;20033;-57
2021/09/05 10:49:06;;;;;;;6.18;3.95;;;23.70;56.70;;;;;;5046498;28;20162;-57
2021/09/05 10:51:39;;;;;;;7.00;3.47;;;23.70;55.50;;;;;;5052731;28;20386;-57
2021/09/05 10:54:33;;;;;;;8.15;3.58;;;23.70;54.70;;;;;;5052885;28;20025;-58
2021/09/05 10:56:59;;;;;;;5.75;3.38;;;23.70;55.00;;;;;;5052154;28;20040;-52
2021/09/05 10:59:26;;;;;;;7.82;3.88;;;23.80;55.10;;;;;;5052740;28;20025;-54
2021/09/05 11:01:52;;;;;;;14.02;3.97;;;23.70;55.40;;;;;;5055456;28;20045;-55
2021/09/05 11:04:18;;;;;;;17.58;3.72;;;23.70;55.90;;;;;;5060506;28;20040;-57
2021/09/05 11:06:48;;;;;;;8.32;3.60;;;23.70;56.40;;;;;;5052919;28;20039;-57
2021/09/05 11:09:21;;;;;;;7.03;3.75;;;23.80;56.70;;;;;;5052866;28;20052;-57
2021/09/05 11:11:56;;;;;;;7.55;4.00;;;23.80;57.20;;;;;;5051689;28;20035;-49
2021/09/05 11:14:37;;;;;;;11.10;4.25;;;23.80;57.40;;;;;;5049659;28;20025;-56
2021/09/05 11:17:12;;;;;;;9.02;3.65;;;23.70;58.00;;;;;;5051182;28;20368;-53
2021/09/05 11:19:47;;;;;;;7.07;3.75;;;23.70;58.10;;;;;;5051905;28;20091;-54
2021/09/05 11:22:17;;;;;;;7.45;4.03;;;23.70;57.60;;;;;;5052751;28;20037;-56
2021/09/05 11:24:44;;;;;;;6.28;3.90;;;23.70;57.70;;;;;;5052634;28;20033;-53
2021/09/05 11:27:12;;;;;;;8.05;4.18;;;23.70;57.60;;;;;;5053045;28;20103;-53
2021/09/05 11:29:38;;;;;;;4.40;3.47;;;23.70;57.70;;;;;;5055413;28;20037;-56
2021/09/05 11:32:06;;;;;;;6.43;3.72;;;23.70;57.80;;;;;;5054472;28;20033;-53
2021/09/05 11:34:33;;;;;;;7.40;3.63;;;23.70;57.70;;;;;;5051919;28;20135;-56
2021/09/05 11:36:59;;;;;;;5.88;2.97;;;23.70;57.60;;;;;;5053293;28;20385;-56
2021/09/05 11:39:25;;;;;;;4.93;3.50;;;23.70;57.30;;;;;;5051957;28;20093;-52
2021/09/05 11:41:55;;;;;;;6.50;3.50;;;23.70;57.40;;;;;;5052311;28;20028;-50
2021/09/05 11:44:34;;;;;;;6.57;3.38;;;23.70;57.70;;;;;;5050729;28;20027;-52
2021/09/05 11:47:17;;;;;;;4.20;3.38;;;23.70;57.70;;;;;;5055649;28;20099;-52
2021/09/05 11:49:53;;;;;;;6.43;3.20;;;23.70;57.70;;;;;;5055972;28;20042;-50
2021/09/05 11:52:19;;;;;;;6.88;4.63;;;23.70;57.60;;;;;;5050922;28;20040;-57
2021/09/05 11:55:05;;;;;;;4.63;3.33;;;23.70;57.60;;;;;;5051763;28;20056;-54
2021/09/05 11:57:32;;;;;;;6.60;3.60;;;23.70;57.60;;;;;;5052222;28;20027;-51
2021/09/05 12:00:00;;;;;;;5.68;3.20;;;23.70;57.60;;;;;;5051845;28;20045;-51
2021/09/05 12:02:31;;;;;;;8.68;3.70;;;23.70;57.60;;;;;;5051850;28;20033;-52
2021/09/05 12:04:58;;;;;;;5.03;3.63;;;23.80;57.50;;;;;;5051834;28;20108;-53
2021/09/05 12:07:25;;;;;;;4.55;3.38;;;23.80;57.30;;;;;;5051557;28;20029;-57
2021/09/05 12:10:07;;;;;;;4.55;3.58;;;23.80;57.10;;;;;;5052315;28;20029;-56
2021/09/05 12:12:35;;;;;;;4.65;3.40;;;23.80;57.30;;;;;;5051255;28;20032;-55
2021/09/05 12:15:14;;;;;;;4.53;3.55;;;23.80;56.60;;;;;;5052018;28;20521;-48
2021/09/05 12:17:52;;;;;;;10.40;3.97;;;23.80;56.50;;;;;;5049214;28;20104;-52
2021/09/05 12:20:23;;;;;;;7.43;3.30;;;23.80;56.80;;;;;;5049685;28;20390;-51
2021/09/05 12:22:54;;;;;;;3.97;3.47;;;23.80;56.70;;;;;;5051675;28;20025;-54
2021/09/05 12:25:21;;;;;;;9.27;4.03;;;23.80;56.60;;;;;;5051877;28;20029;-55
2021/09/05 12:28:03;;;;;;;6.20;4.00;;;23.90;57.30;;;;;;5051182;28;20029;-52
2021/09/05 12:30:29;;;;;;;5.80;3.60;;;23.80;56.80;;;;;;5050813;28;20033;-55
2021/09/05 12:33:18;;;;;;;5.18;3.67;;;23.80;57.30;;;;;;5051097;28;20380;-57
2021/09/05 12:35:49;;;;;;;4.63;3.40;;;23.80;56.60;;;;;;5049903;28;20052;-57
2021/09/05 12:38:27;;;;;;;6.65;3.38;;;23.80;56.50;;;;;;5049183;28;20079;-52
2021/09/05 12:40:54;;;;;;;6.28;3.60;;;23.80;56.50;;;;;;5051657;28;20029;-54
2021/09/05 12:43:51;;;;;;;5.15;3.70;;;23.80;56.50;;;;;;5051442;28;20025;-55
2021/09/05 12:46:41;;;;;;;4.90;3.28;;;23.80;56.60;;;;;;5049278;28;20082;-54
2021/09/05 12:49:18;;;;;;;8.75;3.72;;;23.80;56.50;;;;;;5044546;28;20123;-55